Time;durP1;ratioP1;P1;durP2;ratioP2;P2;SDS_P1;SDS_P2;PMS_P1;PMS_P2;Temp;Humidity;BMP_temperature;BMP_pressure;BME280_temperature;BME280_humidity;BME280_pressure;Samples;Min_cycle;Max_cycle;Signal;HPM_P1;HPM_P2
2022/07/01 00:01:44;;;;;;;33.70;5.80;;;;;;;23.62;100.00;97650.34;5035684;28;20033;-59
2022/07/01 00:04:10;;;;;;;44.67;6.22;;;;;;;23.23;100.00;97649.81;5037313;28;20028;-60
2022/07/01 00:06:35;;;;;;;28.33;5.53;;;;;;;23.48;100.00;97651.72;5036585;28;20033;-58
2022/07/01 00:09:01;;;;;;;34.13;6.07;;;;;;;23.53;100.00;97653.94;5036792;28;20059;-58
2022/07/01 00:11:26;;;;;;;30.98;5.68;;;;;;;23.41;100.00;97647.16;5036072;28;20044;-59
2022/07/01 00:13:52;;;;;;;35.70;6.05;;;;;;;23.43;100.00;97648.66;5037375;28;20029;-59
2022/07/01 00:16:17;;;;;;;38.05;6.25;;;;;;;22.88;100.00;97649.59;5037309;28;20052;-59
2022/07/01 00:18:43;;;;;;;35.83;6.78;;;;;;;22.91;100.00;97662.59;5036324;28;20060;-59
2022/07/01 00:21:08;;;;;;;29.85;6.13;;;;;;;22.87;100.00;97666.53;5036748;28;20036;-59
2022/07/01 00:23:34;;;;;;;33.97;5.78;;;;;;;22.69;100.00;97674.47;5037569;28;20036;-59
2022/07/01 00:25:59;;;;;;;34.47;6.43;;;;;;;22.68;100.00;97671.94;5037024;28;20032;-59
2022/07/01 00:28:25;;;;;;;35.95;6.25;;;;;;;22.54;100.00;97661.81;5037584;28;20037;-58
2022/07/01 00:30:51;;;;;;;32.83;6.45;;;;;;;22.85;100.00;97654.38;5034917;28;20072;-58
2022/07/01 00:33:17;;;;;;;31.02;6.25;;;;;;;22.83;100.00;97653.69;5037975;28;20031;-58
2022/07/01 00:35:42;;;;;;;33.63;6.32;;;;;;;22.39;100.00;97667.59;5037543;28;20033;-59
2022/07/01 00:38:07;;;;;;;29.50;6.05;;;;;;;22.62;100.00;97661.91;5037262;28;20044;-59
2022/07/01 00:40:33;;;;;;;36.58;6.93;;;;;;;22.38;100.00;97660.59;5035459;28;20025;-59
2022/07/01 00:42:59;;;;;;;30.50;6.22;;;;;;;22.24;100.00;97653.94;5036845;28;20040;-59
2022/07/01 00:45:24;;;;;;;32.53;6.15;;;;;;;22.62;100.00;97648.63;5036834;28;20617;-59
2022/07/01 00:47:50;;;;;;;32.55;6.53;;;;;;;22.67;100.00;97659.66;5036825;28;20055;-58
2022/07/01 00:50:16;;;;;;;41.92;7.00;;;;;;;22.34;100.00;97664.53;5034972;28;20021;-59
2022/07/01 00:52:43;;;;;;;28.05;6.20;;;;;;;22.25;100.00;97681.31;5038072;28;20017;-59
2022/07/01 00:55:11;;;;;;;36.17;6.53;;;;;;;22.27;100.00;97690.00;5037303;28;20120;-58
2022/07/01 00:57:38;;;;;;;33.63;6.90;;;;;;;22.30;100.00;97692.38;5036617;28;20482;-58
2022/07/01 01:00:12;;;;;;;40.13;7.38;;;;;;;22.35;100.00;97708.75;5036808;28;20033;-58
2022/07/01 01:02:38;;;;;;;40.63;6.68;;;;;;;22.73;100.00;97712.22;5040793;28;20052;-60
2022/07/01 01:05:05;;;;;;;32.17;6.25;;;;;;;22.75;100.00;97714.75;5036380;28;20021;-59
2022/07/01 01:07:31;;;;;;;35.85;6.50;;;;;;;22.74;100.00;97705.94;5039564;28;20036;-59
2022/07/01 01:09:59;;;;;;;36.72;6.55;;;;;;;22.48;100.00;97698.63;5039546;28;20599;-59
2022/07/01 01:12:28;;;;;;;29.90;5.75;;;;;;;22.28;100.00;97697.00;5040128;28;20040;-59
2022/07/01 01:14:55;;;;;;;35.53;6.30;;;;;;;22.34;100.00;97709.72;5027032;28;20402;-58
2022/07/01 01:17:22;;;;;;;33.13;6.20;;;;;;;22.46;100.00;97718.34;5039602;28;20029;-59
2022/07/01 01:19:48;;;;;;;26.52;5.60;;;;;;;22.20;100.00;97720.75;5039961;28;20500;-59
2022/07/01 01:22:15;;;;;;;29.77;5.88;;;;;;;21.86;100.00;97729.19;5034234;28;20051;-59
2022/07/01 01:24:42;;;;;;;33.10;6.05;;;;;;;22.21;100.00;97738.38;5041215;28;20028;-59
2022/07/01 01:27:08;;;;;;;27.63;5.82;;;;;;;21.87;100.00;97744.13;5039608;28;20037;-61
2022/07/01 01:29:36;;;;;;;30.73;6.22;;;;;;;21.73;100.00;97735.63;5040620;28;20137;-59
2022/07/01 01:32:03;;;;;;;35.58;6.25;;;;;;;21.58;100.00;97723.75;5038883;28;20250;-59
2022/07/01 01:34:29;;;;;;;32.25;5.93;;;;;;;22.02;100.00;97702.91;5040482;28;20120;-59
2022/07/01 01:36:55;;;;;;;31.60;5.90;;;;;;;21.74;100.00;97716.06;5040002;28;20047;-58
2022/07/01 01:39:20;;;;;;;31.65;5.88;;;;;;;21.68;100.00;97737.84;5039995;28;20470;-59
2022/07/01 01:41:46;;;;;;;35.50;6.53;;;;;;;21.57;100.00;97748.59;5038088;28;20040;-58
2022/07/01 01:44:12;;;;;;;35.33;5.93;;;;;;;21.65;100.00;97745.25;5040342;28;20110;-59
2022/07/01 01:46:38;;;;;;;34.83;6.00;;;;;;;21.82;100.00;97725.16;5040226;28;20064;-59
2022/07/01 01:49:04;;;;;;;28.27;5.55;;;;;;;21.58;100.00;97726.41;5039439;28;20176;-59
2022/07/01 01:51:30;;;;;;;29.55;5.40;;;;;;;21.30;100.00;97728.00;5039204;28;20045;-58
2022/07/01 01:53:56;;;;;;;36.90;5.85;;;;;;;21.55;100.00;97740.78;5039412;28;20021;-58
2022/07/01 01:56:22;;;;;;;25.40;5.25;;;;;;;21.47;100.00;97740.63;5039366;28;20037;-59
2022/07/01 01:58:49;;;;;;;26.13;4.90;;;;;;;21.33;100.00;97748.97;5039783;28;20060;-59
2022/07/01 02:01:16;;;;;;;32.90;5.47;;;;;;;21.44;100.00;97754.13;5039100;28;20131;-59
2022/07/01 02:03:43;;;;;;;31.65;5.43;;;;;;;21.18;100.00;97756.47;5039685;28;20402;-60
2022/07/01 02:06:09;;;;;;;31.58;5.30;;;;;;;21.61;100.00;97767.75;5039088;28;20044;-59
2022/07/01 02:08:35;;;;;;;37.63;5.97;;;;;;;21.09;100.00;97781.13;5039291;28;20123;-59
2022/07/01 02:11:01;;;;;;;30.42;5.43;;;;;;;21.03;100.00;97779.03;5037991;28;20876;-58
2022/07/01 02:13:26;;;;;;;34.03;5.53;;;;;;;20.83;100.00;97778.94;5039293;28;20044;-59
2022/07/01 02:15:52;;;;;;;28.88;4.85;;;;;;;20.72;100.00;97765.78;5039153;28;20148;-59
2022/07/01 02:18:17;;;;;;;29.98;5.20;;;;;;;21.08;100.00;97782.09;5038809;28;20549;-59
2022/07/01 02:20:43;;;;;;;30.65;5.35;;;;;;;20.85;100.00;97784.94;5038234;28;20147;-58
2022/07/01 02:23:09;;;;;;;32.95;5.25;;;;;;;20.49;100.00;97796.84;5039000;28;20564;-58
2022/07/01 02:25:35;;;;;;;30.42;5.00;;;;;;;20.98;100.00;97803.28;5038648;28;20029;-58
2022/07/01 02:28:01;;;;;;;30.15;5.07;;;;;;;20.66;100.00;97803.41;5039916;28;20037;-58
2022/07/01 02:30:27;;;;;;;30.60;5.25;;;;;;;20.85;100.00;97805.31;5036107;28;20044;-58
2022/07/01 02:32:52;;;;;;;29.48;5.15;;;;;;;20.67;100.00;97811.22;5039118;28;20032;-59
2022/07/01 02:35:18;;;;;;;32.40;4.88;;;;;;;21.02;100.00;97798.56;5038537;28;20035;-60
2022/07/01 02:37:44;;;;;;;29.85;4.95;;;;;;;20.73;100.00;97804.56;5039406;28;20024;-59
2022/07/01 02:40:11;;;;;;;42.78;6.25;;;;;;;20.51;100.00;97793.13;5037435;28;20043;-59
2022/07/01 02:42:37;;;;;;;41.15;5.72;;;;;;;20.22;100.00;97785.00;5038457;28;20025;-60
2022/07/01 02:45:03;;;;;;;29.35;5.05;;;;;;;20.68;100.00;97785.59;5039152;28;20035;-58
2022/07/01 02:47:36;;;;;;;32.40;5.20;;;;;;;20.17;100.00;97777.41;5038132;28;20049;-58
2022/07/01 02:50:06;;;;;;;39.10;5.78;;;;;;;20.31;100.00;97780.72;5037246;28;20048;-58
2022/07/01 02:52:34;;;;;;;30.70;4.70;;;;;;;20.12;100.00;97782.25;5037940;28;20055;-59
2022/07/01 02:55:00;;;;;;;31.60;4.93;;;;;;;20.55;100.00;97786.59;5038324;28;20033;-59
2022/07/01 02:57:25;;;;;;;34.50;5.15;;;;;;;20.18;100.00;97795.00;5038037;28;20091;-58
2022/07/01 02:59:51;;;;;;;32.05;4.95;;;;;;;19.94;100.00;97797.03;5037994;28;20594;-59
2022/07/01 03:02:17;;;;;;;27.90;4.88;;;;;;;20.08;100.00;97791.44;5037675;28;20076;-59
2022/07/01 03:04:43;;;;;;;38.58;5.88;;;;;;;19.74;100.00;97796.00;5038435;28;20021;-58
2022/07/01 03:07:09;;;;;;;40.42;5.43;;;;;;;19.60;100.00;97805.88;5037841;28;20055;-58
2022/07/01 03:09:35;;;;;;;34.22;5.18;;;;;;;19.93;100.00;97811.25;5037520;28;20036;-60
2022/07/01 03:12:24;;;;;;;28.23;4.63;;;;;;;19.92;100.00;97809.56;5037242;28;20075;-58
2022/07/01 03:14:45;;;;;;;36.78;5.45;;;;;;;19.61;100.00;97807.59;5037873;28;20033;-58
2022/07/01 03:17:11;;;;;;;32.95;4.95;;;;;;;20.08;100.00;97811.78;5036628;28;20056;-58
2022/07/01 03:19:36;;;;;;;28.35;4.78;;;;;;;19.89;100.00;97805.38;5038085;28;20469;-58
2022/07/01 03:22:02;;;;;;;33.72;5.05;;;;;;;20.28;100.00;97807.47;5036943;28;20408;-59
2022/07/01 03:24:27;;;;;;;26.33;4.65;;;;;;;20.09;100.00;97811.66;5038238;28;20024;-58
2022/07/01 03:26:53;;;;;;;33.13;5.20;;;;;;;19.73;100.00;97804.94;5037585;28;20049;-58
2022/07/01 03:29:18;;;;;;;30.52;5.10;;;;;;;19.60;100.00;97811.19;5037110;28;20037;-59
2022/07/01 03:31:43;;;;;;;35.25;5.65;;;;;;;19.45;100.00;97791.28;5035961;28;20358;-58
2022/07/01 03:34:09;;;;;;;38.55;5.80;;;;;;;20.12;100.00;97787.56;5037231;28;20031;-58
2022/07/01 03:36:36;;;;;;;33.72;5.03;;;;;;;19.81;100.00;97798.06;5035579;28;20662;-58
2022/07/01 03:39:03;;;;;;;36.30;5.60;;;;;;;19.71;100.00;97802.38;5034805;28;20047;-59
2022/07/01 03:41:28;;;;;;;30.80;4.93;;;;;;;19.81;100.00;97806.00;5036423;28;20048;-58
2022/07/01 03:43:54;;;;;;;36.92;5.55;;;;;;;19.48;100.00;97806.03;5037602;28;20032;-58
2022/07/01 03:46:19;;;;;;;32.58;4.97;;;;;;;19.83;100.00;97806.72;5037309;28;20108;-58
2022/07/01 03:48:44;;;;;;;34.42;5.07;;;;;;;20.25;100.00;97805.06;5037657;28;20454;-58
2022/07/01 03:51:10;;;;;;;32.95;5.05;;;;;;;19.89;100.00;97800.06;5036515;28;20068;-60
2022/07/01 03:56:19;;;;;;;39.05;5.70;;;;;;;19.93;100.00;97816.53;5036899;28;20140;-59
2022/07/01 03:58:44;;;;;;;36.90;5.45;;;;;;;20.17;100.00;97830.38;5037440;28;20036;-58
2022/07/01 04:01:10;;;;;;;33.13;5.20;;;;;;;19.81;100.00;97840.41;5036037;28;20037;-58
2022/07/01 04:03:35;;;;;;;31.27;4.72;;;;;;;19.74;100.00;97855.09;5037758;28;20049;-58
2022/07/01 04:06:00;;;;;;;33.33;5.00;;;;;;;19.65;100.00;97861.94;5037276;28;20909;-58
2022/07/01 04:08:26;;;;;;;38.05;5.35;;;;;;;19.86;100.00;97882.34;5037226;28;20040;-58
2022/07/01 04:10:53;;;;;;;26.95;4.47;;;;;;;19.82;100.00;97894.16;5035656;28;20052;-58
2022/07/01 04:13:19;;;;;;;28.63;4.80;;;;;;;19.44;100.00;97901.50;5037949;28;20024;-58
2022/07/01 04:15:44;;;;;;;32.05;5.03;;;;;;;19.58;100.00;97894.28;5036520;28;20041;-58
2022/07/01 04:18:10;;;;;;;30.52;5.13;;;;;;;19.60;100.00;97909.06;5036795;28;20032;-58
2022/07/01 04:20:35;;;;;;;33.33;5.13;;;;;;;19.49;100.00;97909.09;5035680;28;20162;-58
2022/07/01 04:23:01;;;;;;;38.70;5.60;;;;;;;19.32;100.00;97913.06;5036944;28;20035;-58
2022/07/01 04:25:29;;;;;;;39.40;6.85;;;;;;;19.00;100.00;97929.59;5036740;28;20033;-58
2022/07/01 04:27:55;;;;;;;31.73;5.97;;;;;;;18.53;100.00;97949.88;5037416;28;20524;-58
2022/07/01 04:30:21;;;;;;;34.97;6.45;;;;;;;18.16;100.00;97955.22;5035240;28;21019;-58
2022/07/01 04:32:46;;;;;;;30.65;5.85;;;;;;;18.21;100.00;97955.69;5037120;28;20025;-58
2022/07/01 04:35:14;;;;;;;31.88;6.00;;;;;;;18.00;100.00;97949.34;5036768;28;20509;-59
2022/07/01 04:37:40;;;;;;;43.17;6.32;;;;;;;18.27;100.00;97959.72;5037005;28;20723;-60
2022/07/01 04:40:06;;;;;;;51.88;7.75;;;;;;;18.19;100.00;97965.53;5036333;28;20029;-59
2022/07/01 04:42:32;;;;;;;31.67;6.50;;;;;;;18.05;100.00;97957.78;5034968;28;20041;-59
2022/07/01 04:44:57;;;;;;;40.30;6.72;;;;;;;18.17;100.00;97959.53;5037177;28;20103;-58
2022/07/01 04:47:23;;;;;;;40.03;6.90;;;;;;;17.91;100.00;97935.03;5036414;28;20161;-59
2022/07/01 04:49:49;;;;;;;42.33;6.38;;;;;;;18.05;100.00;97934.03;5036579;28;20033;-58
2022/07/01 04:52:14;;;;;;;42.67;7.22;;;;;;;18.08;100.00;97920.59;5035228;28;20037;-59
2022/07/01 04:54:41;;;;;;;36.40;5.97;;;;;;;18.60;100.00;97922.03;5036805;28;20399;-59
2022/07/01 04:57:06;;;;;;;33.63;6.40;;;;;;;18.16;100.00;97934.09;5036632;28;20119;-59
2022/07/01 04:59:32;;;;;;;35.45;6.78;;;;;;;18.20;100.00;97940.84;5037313;28;20131;-59
2022/07/01 05:01:58;;;;;;;35.90;6.82;;;;;;;18.29;100.00;97940.16;5035875;28;20039;-59
2022/07/01 05:04:26;;;;;;;39.30;6.75;;;;;;;18.38;100.00;97937.78;5037055;28;20047;-58
2022/07/01 05:06:51;;;;;;;41.13;7.03;;;;;;;18.30;100.00;97951.56;5035911;28;20091;-58
2022/07/01 05:09:17;;;;;;;42.15;6.95;;;;;;;18.15;100.00;97966.72;5034396;28;20016;-59
2022/07/01 05:11:42;;;;;;;42.38;7.40;;;;;;;18.09;100.00;97970.63;5034713;28;20032;-61
2022/07/01 05:14:08;;;;;;;35.67;6.40;;;;;;;18.33;100.00;97976.91;5031551;28;20025;-59
2022/07/01 05:16:34;;;;;;;33.22;5.95;;;;;;;18.19;100.00;97984.00;5034623;28;20051;-59
2022/07/01 05:22:02;;;;;;;34.40;6.33;;;;;;;17.92;100.00;97963.13;4984189;28;20049;-59
2022/07/01 05:24:30;;;;;;;36.47;6.50;;;;;;;17.79;100.00;97967.53;5025968;28;20459;-59
2022/07/01 05:26:56;;;;;;;34.05;6.53;;;;;;;18.10;100.00;97974.97;5035827;28;20079;-58
2022/07/01 05:29:22;;;;;;;31.67;5.63;;;;;;;18.01;100.00;97982.69;5036208;28;20131;-58
2022/07/01 05:31:47;;;;;;;26.98;5.30;;;;;;;18.07;100.00;97977.84;5034303;28;20051;-59
2022/07/01 05:34:12;;;;;;;30.70;6.30;;;;;;;17.64;100.00;97999.28;5036345;28;20025;-59
2022/07/01 05:36:38;;;;;;;33.83;6.28;;;;;;;18.01;100.00;97987.97;5035205;28;20131;-58
2022/07/01 05:39:04;;;;;;;45.58;7.78;;;;;;;18.26;100.00;97995.81;5033768;28;20032;-60
2022/07/01 05:41:29;;;;;;;27.25;5.85;;;;;;;18.26;100.00;98003.72;5035678;28;20358;-60
2022/07/01 05:43:55;;;;;;;27.98;5.72;;;;;;;18.13;100.00;98024.06;5037060;28;20720;-59
2022/07/01 05:46:21;;;;;;;29.95;6.45;;;;;;;18.50;100.00;98027.50;5036003;28;20041;-58
2022/07/01 05:48:46;;;;;;;30.92;5.72;;;;;;;18.06;100.00;98033.34;5036046;28;20550;-59
2022/07/01 05:51:11;;;;;;;27.65;5.65;;;;;;;18.43;100.00;98043.91;5035044;28;20503;-59
2022/07/01 05:53:37;;;;;;;32.17;5.75;;;;;;;18.80;100.00;98043.88;5036567;28;20025;-59
2022/07/01 05:56:03;;;;;;;24.17;5.10;;;;;;;17.72;100.00;98044.47;5039989;28;20992;-59
2022/07/01 05:58:28;;;;;;;28.77;5.80;;;;;;;18.00;100.00;98052.28;5039665;28;20028;-59
2022/07/01 06:00:53;;;;;;;27.80;5.45;;;;;;;18.00;100.00;98047.00;5039136;28;20033;-58
2022/07/01 06:03:19;;;;;;;26.83;4.90;;;;;;;18.30;100.00;98042.16;5021966;28;20032;-58
2022/07/01 06:05:44;;;;;;;30.25;5.45;;;;;;;18.23;100.00;98030.38;5039867;28;20045;-58
2022/07/01 06:08:09;;;;;;;27.83;5.60;;;;;;;18.01;100.00;98046.03;5039501;28;20491;-59
2022/07/01 06:10:35;;;;;;;28.50;5.28;;;;;;;18.06;100.00;98049.19;5038132;28;20041;-58
2022/07/01 06:13:02;;;;;;;27.73;4.95;;;;;;;17.97;100.00;98049.84;5040048;28;20025;-58
2022/07/01 06:15:27;;;;;;;31.00;5.60;;;;;;;18.21;100.00;98050.75;5038490;28;20041;-58
2022/07/01 06:17:53;;;;;;;25.73;4.43;;;;;;;17.92;100.00;98048.38;5037792;28;20021;-58
2022/07/01 06:20:19;;;;;;;28.25;4.85;;;;;;;17.81;100.00;98052.69;5037293;28;20513;-58
2022/07/01 06:22:44;;;;;;;31.13;5.18;;;;;;;17.72;100.00;98067.38;5039524;28;20756;-58
2022/07/01 06:25:10;;;;;;;24.25;4.13;;;;;;;18.03;100.00;98070.53;5039708;28;20028;-58
2022/07/01 06:27:43;;;;;;;22.40;4.30;;;;;;;18.22;100.00;98068.28;5040302;28;20515;-59
2022/07/01 06:30:10;;;;;;;35.28;5.22;;;;;;;17.75;100.00;98067.13;5038479;28;20035;-58
2022/07/01 06:32:36;;;;;;;22.83;4.05;;;;;;;18.04;100.00;98064.31;5039081;28;20021;-58
2022/07/01 06:35:01;;;;;;;25.05;4.32;;;;;;;18.03;100.00;98050.28;5039050;28;20037;-58
2022/07/01 06:37:27;;;;;;;30.25;5.72;;;;;;;17.99;100.00;98058.50;5038574;28;20045;-58
2022/07/01 06:39:52;;;;;;;28.17;4.55;;;;;;;18.04;100.00;98057.22;5037159;28;20036;-59
2022/07/01 06:42:18;;;;;;;25.20;4.18;;;;;;;17.62;100.00;98061.88;5037891;28;20445;-58
2022/07/01 06:44:43;;;;;;;25.77;4.25;;;;;;;17.87;100.00;98050.50;5039245;28;20039;-59
2022/07/01 06:47:08;;;;;;;24.27;4.05;;;;;;;18.04;100.00;98051.09;5038093;28;20045;-59
2022/07/01 06:49:34;;;;;;;24.27;4.40;;;;;;;18.05;100.00;98043.09;5038021;28;20200;-58
2022/07/01 06:51:59;;;;;;;24.50;3.90;;;;;;;18.53;100.00;98054.66;5037318;28;20048;-58
2022/07/01 06:54:25;;;;;;;21.35;3.70;;;;;;;18.26;100.00;98060.97;5039140;28;20098;-58
2022/07/01 06:56:50;;;;;;;21.40;3.60;;;;;;;18.44;100.00;98064.94;5038721;28;20037;-58
2022/07/01 06:59:16;;;;;;;23.75;3.70;;;;;;;18.49;100.00;98057.53;5038135;28;20029;-58
2022/07/01 07:01:41;;;;;;;26.65;3.90;;;;;;;18.46;100.00;98067.47;5037743;28;20044;-58
2022/07/01 07:04:07;;;;;;;30.17;4.80;;;;;;;18.59;100.00;98076.19;5038542;28;20114;-58
2022/07/01 07:06:33;;;;;;;23.30;4.20;;;;;;;18.58;100.00;98087.72;5036482;28;20328;-58
2022/07/01 07:08:58;;;;;;;26.42;3.92;;;;;;;18.68;100.00;98083.44;5036398;28;20060;-59
2022/07/01 07:11:23;;;;;;;26.90;4.10;;;;;;;18.28;100.00;98096.88;5025657;28;20048;-58
2022/07/01 07:13:49;;;;;;;22.50;3.53;;;;;;;18.30;100.00;98099.41;5038565;28;20131;-58
2022/07/01 07:16:14;;;;;;;22.10;3.72;;;;;;;18.03;100.00;98107.47;5038655;28;20086;-59
2022/07/01 07:18:40;;;;;;;29.88;4.47;;;;;;;18.37;100.00;98105.94;5032291;28;20039;-58
2022/07/01 07:21:05;;;;;;;22.77;3.70;;;;;;;18.71;100.00;98114.09;5036935;28;20487;-58
2022/07/01 07:23:31;;;;;;;27.30;3.78;;;;;;;18.21;100.00;98114.09;5036380;28;20656;-58
2022/07/01 07:25:56;;;;;;;22.98;3.90;;;;;;;18.14;100.00;98112.88;5037611;28;20071;-58
2022/07/01 07:28:22;;;;;;;37.90;5.57;;;;;;;18.29;100.00;98109.13;5037845;28;20059;-59
2022/07/01 07:30:47;;;;;;;21.17;3.38;;;;;;;17.96;100.00;98114.13;5036619;28;20056;-57
2022/07/01 07:33:12;;;;;;;22.63;3.83;;;;;;;17.72;100.00;98122.78;5038845;28;20434;-59
2022/07/01 07:35:38;;;;;;;19.17;3.20;;;;;;;18.35;100.00;98117.56;5037968;28;20029;-59
2022/07/01 07:38:03;;;;;;;26.08;4.13;;;;;;;17.94;100.00;98118.66;5038286;28;20033;-58
2022/07/01 07:40:29;;;;;;;25.40;3.90;;;;;;;18.18;100.00;98127.53;5036836;28;20067;-59
2022/07/01 07:42:54;;;;;;;22.80;3.40;;;;;;;18.17;100.00;98120.56;5038025;28;20029;-59
2022/07/01 07:45:20;;;;;;;21.90;3.58;;;;;;;17.77;100.00;98128.56;5037387;28;20505;-58
2022/07/01 07:47:48;;;;;;;24.17;3.85;;;;;;;17.93;100.00;98128.38;5038003;28;20040;-59
2022/07/01 07:50:14;;;;;;;23.65;3.58;;;;;;;18.29;100.00;98129.41;5036118;28;20986;-59
2022/07/01 07:52:40;;;;;;;23.88;3.75;;;;;;;18.07;100.00;98127.44;5037881;28;20040;-59
2022/07/01 07:55:08;;;;;;;24.05;3.72;;;;;;;18.03;100.00;98128.59;5037400;28;20048;-58
2022/07/01 07:57:35;;;;;;;23.40;3.45;;;;;;;17.98;100.00;98125.44;5037670;28;20086;-60
2022/07/01 08:00:01;;;;;;;37.47;5.07;;;;;;;18.46;100.00;98126.41;5036367;28;20074;-58
2022/07/01 08:02:26;;;;;;;24.60;3.78;;;;;;;17.99;100.00;98120.03;5037814;28;20131;-58
2022/07/01 08:04:52;;;;;;;26.58;3.83;;;;;;;18.33;100.00;98114.22;5037975;28;20029;-58
2022/07/01 08:07:17;;;;;;;24.38;3.50;;;;;;;18.06;100.00;98118.66;5037660;28;20061;-59
2022/07/01 08:09:46;;;;;;;27.23;3.83;;;;;;;18.64;100.00;98123.44;5037202;28;20116;-58
2022/07/01 08:12:12;;;;;;;29.70;3.90;;;;;;;18.81;100.00;98119.59;5036171;28;20041;-58
2022/07/01 08:14:37;;;;;;;22.10;3.35;;;;;;;18.61;100.00;98124.47;5037744;28;20032;-60
2022/07/01 08:17:03;;;;;;;24.20;3.85;;;;;;;18.75;100.00;98125.25;5037083;28;20581;-58
2022/07/01 08:19:28;;;;;;;26.20;4.20;;;;;;;18.11;100.00;98131.53;5037981;28;20028;-59
2022/07/01 08:21:54;;;;;;;26.95;4.25;;;;;;;18.18;100.00;98138.09;5036592;28;20124;-58
2022/07/01 08:24:19;;;;;;;27.23;4.63;;;;;;;17.80;100.00;98149.47;5038232;28;20138;-58
2022/07/01 08:26:44;;;;;;;21.17;4.30;;;;;;;17.19;100.00;98148.31;5036992;28;20032;-58
2022/07/01 08:29:10;;;;;;;29.95;5.00;;;;;;;17.56;100.00;98167.78;5035948;28;20033;-58
2022/07/01 08:31:35;;;;;;;28.63;4.65;;;;;;;17.77;100.00;98160.22;5036238;28;20151;-59
2022/07/01 08:34:02;;;;;;;30.23;5.40;;;;;;;18.08;100.00;98163.44;5037200;28;20105;-58
2022/07/01 08:36:27;;;;;;;24.92;4.75;;;;;;;18.09;100.00;98167.78;5036978;28;20454;-59
2022/07/01 08:38:53;;;;;;;27.80;4.75;;;;;;;18.12;100.00;98170.19;5036789;28;20029;-58
2022/07/01 08:41:19;;;;;;;27.05;4.82;;;;;;;17.81;100.00;98172.25;5036520;28;20507;-58
2022/07/01 08:43:45;;;;;;;24.25;4.80;;;;;;;18.08;100.00;98166.06;5037591;28;20060;-60
2022/07/01 08:46:10;;;;;;;23.80;4.25;;;;;;;18.60;100.00;98161.56;5036211;28;20152;-58
2022/07/01 08:48:36;;;;;;;31.30;5.45;;;;;;;18.78;100.00;98156.75;5036664;28;20017;-59
2022/07/01 08:51:04;;;;;;;21.13;3.85;;;;;;;19.22;100.00;98160.63;5035872;28;20068;-59
2022/07/01 08:53:31;;;;;;;25.65;4.60;;;;;;;18.63;100.00;98159.53;5037507;28;20056;-59
2022/07/01 08:58:41;;;;;;;25.23;4.57;;;;;;;18.85;100.00;98163.31;5037117;28;20094;-60
2022/07/01 09:01:16;;;;;;;27.35;4.75;;;;;;;18.45;100.00;98176.69;5036166;28;20045;-59
2022/07/01 09:03:42;;;;;;;22.42;4.47;;;;;;;18.64;100.00;98177.09;5037084;28;20025;-61
2022/07/01 09:06:15;;;;;;;22.27;3.97;;;;;;;18.65;100.00;98178.75;5035087;28;20067;-59
2022/07/01 09:08:41;;;;;;;28.05;4.70;;;;;;;18.68;100.00;98194.41;5036250;28;20520;-58
2022/07/01 09:11:14;;;;;;;23.23;4.25;;;;;;;18.03;100.00;98192.78;5035952;28;20412;-59
2022/07/01 09:13:41;;;;;;;32.75;5.22;;;;;;;18.15;100.00;98200.81;5036602;28;20651;-59
2022/07/01 09:16:16;;;;;;;23.08;4.28;;;;;;;18.33;100.00;98204.81;5036422;28;20098;-59
2022/07/01 09:19:02;;;;;;;26.02;4.55;;;;;;;18.46;100.00;98207.44;5036869;28;20094;-59
2022/07/01 09:21:29;;;;;;;23.98;4.30;;;;;;;18.27;100.00;98210.53;5035451;28;20128;-59
2022/07/01 09:23:55;;;;;;;27.30;4.60;;;;;;;18.18;100.00;98217.28;5036491;28;20021;-60
2022/07/01 09:26:21;;;;;;;21.98;3.92;;;;;;;17.88;100.00;98221.06;5036174;28;20049;-59
2022/07/01 09:28:54;;;;;;;28.33;4.28;;;;;;;18.54;100.00;98233.31;5035993;28;20056;-60
2022/07/01 09:31:19;;;;;;;24.38;4.47;;;;;;;18.53;100.00;98243.06;5040147;28;20132;-59
2022/07/01 09:33:45;;;;;;;25.58;4.30;;;;;;;18.64;100.00;98235.22;5040469;28;20627;-59
2022/07/01 09:36:15;;;;;;;26.25;4.72;;;;;;;18.34;100.00;98243.47;5039843;28;20052;-57
2022/07/01 09:38:47;;;;;;;31.90;5.47;;;;;;;18.46;100.00;98252.34;5040142;28;20032;-57
2022/07/01 09:41:13;;;;;;;20.67;3.78;;;;;;;18.36;100.00;98240.72;5039025;28;20051;-59
2022/07/01 09:43:39;;;;;;;23.40;4.10;;;;;;;18.58;100.00;98237.44;5040285;28;20051;-59
2022/07/01 09:46:09;;;;;;;23.02;4.25;;;;;;;18.08;100.00;98242.63;5039339;28;20044;-60
2022/07/01 09:48:37;;;;;;;33.25;4.85;;;;;;;18.42;100.00;98241.16;5040023;28;20065;-59
2022/07/01 09:51:05;;;;;;;26.42;4.45;;;;;;;18.30;100.00;98247.28;5038277;28;20040;-59
2022/07/01 09:53:31;;;;;;;23.42;4.10;;;;;;;17.81;100.00;98250.56;5039517;28;20144;-60
2022/07/01 09:55:57;;;;;;;23.75;4.05;;;;;;;18.97;100.00;98235.63;5039625;28;20029;-59
2022/07/01 09:58:23;;;;;;;25.92;4.38;;;;;;;18.44;100.00;98243.69;5040323;28;20036;-60
2022/07/01 10:00:49;;;;;;;20.10;3.85;;;;;;;18.40;100.00;98239.59;5039130;28;20368;-61
2022/07/01 10:03:17;;;;;;;29.45;4.50;;;;;;;18.15;100.00;98230.69;5040857;28;20126;-57
2022/07/01 10:05:53;;;;;;;27.52;4.50;;;;;;;18.51;100.00;98226.47;5039289;28;20059;-60
2022/07/01 10:08:28;;;;;;;28.98;4.55;;;;;;;18.50;100.00;98209.75;5039554;28;20086;-60
2022/07/01 10:11:15;;;;;;;27.08;4.40;;;;;;;18.59;100.00;98200.34;5038845;28;20052;-60
2022/07/01 10:13:41;;;;;;;29.80;4.30;;;;;;;18.97;100.00;98199.44;5039808;28;20536;-59
2022/07/01 10:16:08;;;;;;;24.73;3.92;;;;;;;19.41;100.00;98202.44;5039145;28;20041;-61
2022/07/01 10:18:34;;;;;;;24.20;3.95;;;;;;;19.41;100.00;98203.28;5039412;28;20094;-60
2022/07/01 10:21:01;;;;;;;19.40;3.80;;;;;;;19.14;100.00;98194.75;5038781;28;20107;-59
2022/07/01 10:23:43;;;;;;;20.42;3.75;;;;;;;19.85;100.00;98193.00;5040752;28;20082;-60
2022/07/01 10:26:11;;;;;;;20.10;3.42;;;;;;;19.84;100.00;98205.38;5039328;28;20044;-61
2022/07/01 10:28:41;;;;;;;27.48;4.38;;;;;;;19.78;100.00;98211.16;5037576;28;20786;-59
2022/07/01 10:31:15;;;;;;;23.55;4.05;;;;;;;19.51;100.00;98223.75;5038217;28;20534;-59
2022/07/01 10:33:54;;;;;;;21.08;3.70;;;;;;;19.61;100.00;98224.75;5039598;28;20033;-59
2022/07/01 10:36:22;;;;;;;23.85;4.18;;;;;;;19.33;100.00;98215.38;5039227;28;20048;-60
2022/07/01 10:39:00;;;;;;;21.45;3.72;;;;;;;19.93;100.00;98219.72;5039316;28;20032;-59
2022/07/01 10:41:27;;;;;;;22.10;3.78;;;;;;;19.69;100.00;98217.09;5037370;28;20618;-59
2022/07/01 10:43:54;;;;;;;23.60;4.15;;;;;;;19.30;100.00;98219.09;5039819;28;20112;-59
2022/07/01 10:46:41;;;;;;;23.83;3.97;;;;;;;19.61;100.00;98219.47;5039438;28;20037;-60
2022/07/01 10:49:12;;;;;;;20.30;3.42;;;;;;;19.23;100.00;98225.78;5028551;28;20834;-59
2022/07/01 10:51:49;;;;;;;20.70;3.60;;;;;;;18.84;100.00;98246.22;5039315;28;20041;-59
2022/07/01 10:54:36;;;;;;;19.60;3.65;;;;;;;19.42;100.00;98244.63;5039454;28;20032;-59
2022/07/01 10:57:17;;;;;;;19.27;3.67;;;;;;;19.60;100.00;98250.38;5038392;28;20048;-59
2022/07/01 10:59:47;;;;;;;21.60;3.63;;;;;;;19.73;100.00;98249.50;5038578;28;20092;-58
2022/07/01 11:02:16;;;;;;;25.92;4.30;;;;;;;19.19;100.00;98266.66;5038207;28;20037;-59
2022/07/01 11:04:41;;;;;;;22.88;4.05;;;;;;;18.96;100.00;98266.47;5037965;28;20069;-60
2022/07/01 11:07:08;;;;;;;21.90;3.75;;;;;;;18.57;100.00;98285.94;5037485;28;20032;-60
2022/07/01 11:09:33;;;;;;;23.25;3.90;;;;;;;18.63;100.00;98296.91;5038608;28;20033;-59
2022/07/01 11:11:59;;;;;;;26.65;4.57;;;;;;;18.55;100.00;98288.69;5037020;28;20040;-59
2022/07/01 11:14:26;;;;;;;28.10;4.25;;;;;;;18.13;100.00;98288.03;5038328;28;20054;-59
2022/07/01 11:16:51;;;;;;;22.63;3.80;;;;;;;18.83;100.00;98287.63;5038173;28;20134;-58
2022/07/01 11:19:19;;;;;;;21.90;3.70;;;;;;;18.56;100.00;98285.09;5038572;28;20111;-60
2022/07/01 11:21:49;;;;;;;23.63;3.83;;;;;;;18.78;100.00;98288.88;5037372;28;20044;-59
2022/07/01 11:24:17;;;;;;;22.83;4.05;;;;;;;18.02;100.00;98304.56;5039158;28;20041;-60